Airfield :
LOGIN :

Register | Disclaimer

   EN    FR    IT 

 










Legend :    VFR   Marginal VFR   IFR   Intensive IFR   Very Intensive IFR
Visi :
Ceiling :
>= 8 km
>= 3000ft
5 to 8 km
1000 to 3000 ft
1500m to 5 km
500 to 1000 ft
800 to 1500m
200 to 500 ft
< 800m
< 200 ft
Symbols :   Thunderstorms  Fog  Heavy snow  Heavy precipitations  Wind > 20 kt
SIGMETs :     Misc.  Thunderstorms  Icing  Turbulence  Mountain Waves  Volcanic Ashes






- Airport Elevation : 174 ft
- IATA code : RYG


ENRY - Moss , Rygge

CURRENT METAR :
  • 280320Z AUTO 12003KT 9999 BKN015/// 12/11 Q1015

EXPIRED METARs :
  • 280250Z AUTO 11003KT 6000 SCT015/// 12/11 Q1015
  • 280220Z AUTO 13004KT 9999 FEW015/// 12/11 Q1015
  • 280120Z AUTO 12003KT 9999 BKN015/// 12/11 Q1015
  • 280050Z AUTO 14005KT 9999 SCT016/// 12/11 Q1016
  • 280020Z AUTO 15004KT 9999 FEW017/// 13/11 Q1016
  • 272350Z AUTO 17005KT 9999 FEW014/// SCT020/// 14/12 Q1016
  • 272320Z AUTO 17007KT 9999 FEW013/// SCT022/// 14/13 Q1016
  • 272250Z AUTO 16006KT 9999 FEW014/// SCT016/// 14/13 Q1016

TAF TAF ENRY
Valid from the 28 at 00:00 until the 29 at 00:00 UTC


272300Z 2800/2824 17007KT 9999 SCT012
PROB40 2800/2807 BKN008
BECMG 2811/2813 32012KT
TEMPO 2812/2814 SCT030TCU
TEMPO 2814/2819 4000 TSRA BKN020CB
BECMG 2819/2821 16010KT
PROB40 2819/2824 BKN008



MET'MAP, your aeronautical weather chart ! - Copyright ORBIFLY December 2007 - Disclaimer

ORBIFLY MET'MAP TEAM :

Programming & Development : Alexandra Zaïnal
Original concept : Baudouin d'Aumeries
Technical & hardware support : Manuel Goepfert
Assistance : Marc-Olivier Méhu




SOURCES & CREDITS :

   NOAA